Time;durP1;ratioP1;P1;durP2;ratioP2;P2;SDS_P1;SDS_P2;PMS_P1;PMS_P2;Temp;Humidity;BMP_temperature;BMP_pressure;BME280_temperature;BME280_humidity;BME280_pressure;Samples;Min_cycle;Max_cycle;Signal;HPM_P1;HPM_P2
2022/08/25 00:02:13;;;;;;;20.17;8.70;;;;;;;19.84;53.81;101026.16;5092899;28;20102;-76
2022/08/25 00:04:42;;;;;;;15.85;8.30;;;;;;;19.77;54.02;101008.63;5092897;28;20058;-77
2022/08/25 00:07:11;;;;;;;19.05;8.07;;;;;;;19.84;53.75;101018.22;5092146;28;20088;-76
2022/08/25 00:09:44;;;;;;;17.63;8.27;;;;;;;19.84;54.10;101023.50;5092971;28;20071;-78
2022/08/25 00:12:11;;;;;;;18.45;8.63;;;;;;;19.79;54.07;101020.06;5092763;28;20056;-78
2022/08/25 00:14:38;;;;;;;19.65;8.93;;;;;;;19.72;54.17;101013.09;5092978;28;20063;-78
2022/08/25 00:17:08;;;;;;;19.88;8.48;;;;;;;19.75;54.11;101018.38;5076494;28;20060;-78
2022/08/25 00:19:38;;;;;;;16.92;8.93;;;;;;;19.73;54.38;101014.88;5038412;28;20129;-77
2022/08/25 00:22:06;;;;;;;21.23;7.90;;;;;;;19.72;54.33;101023.69;5072608;28;20060;-78
2022/08/25 00:24:33;;;;;;;18.23;7.75;;;;;;;19.69;54.15;101007.81;5073921;28;20072;-78
2022/08/25 00:27:00;;;;;;;14.73;8.40;;;;;;;19.63;54.12;101000.84;5072543;28;20049;-79
2022/08/25 00:29:29;;;;;;;14.82;8.02;;;;;;;19.53;54.50;100996.59;5054514;28;20052;-77
2022/08/25 00:31:57;;;;;;;16.35;8.30;;;;;;;19.57;54.42;101008.00;5072483;28;20083;-78
2022/08/25 00:34:32;;;;;;;19.00;8.38;;;;;;;19.49;54.70;100988.69;5072464;28;20052;-78
2022/08/25 00:37:01;;;;;;;19.80;8.70;;;;;;;19.61;54.92;101021.19;5072549;28;20060;-78
2022/08/25 00:39:28;;;;;;;18.38;8.73;;;;;;;19.61;55.03;101028.28;5072297;28;20056;-77
2022/08/25 00:41:56;;;;;;;20.55;8.77;;;;;;;19.51;55.08;101006.34;5072605;28;20076;-78
2022/08/25 00:44:27;;;;;;;17.52;9.00;;;;;;;19.54;55.35;101006.28;5072569;28;20455;-78
2022/08/25 00:46:57;;;;;;;23.92;9.32;;;;;;;19.57;55.33;101015.97;5072984;28;20505;-77
2022/08/25 00:49:36;;;;;;;20.27;8.07;;;;;;;19.53;55.32;101016.91;5056540;28;20109;-78
2022/08/25 00:52:08;;;;;;;23.17;8.88;;;;;;;19.47;55.33;101007.28;5092364;28;20056;-79
2022/08/25 00:54:40;;;;;;;19.42;8.77;;;;;;;19.48;55.71;101016.97;5092354;28;20075;-79
2022/08/25 00:57:11;;;;;;;22.40;9.18;;;;;;;19.46;55.76;101009.97;5092641;28;20093;-79
2022/08/25 00:59:39;;;;;;;23.40;8.95;;;;;;;19.37;56.00;100997.72;5092712;28;20210;-77
2022/08/25 01:02:08;;;;;;;17.35;8.60;;;;;;;19.27;55.94;100983.72;5092355;28;20044;-76
2022/08/25 01:04:41;;;;;;;20.30;8.57;;;;;;;19.39;56.04;101010.03;5092830;28;20048;-77
2022/08/25 01:07:18;;;;;;;17.00;8.43;;;;;;;19.41;55.84;101010.91;5092143;28;20085;-77
2022/08/25 01:09:47;;;;;;;17.90;8.80;;;;;;;19.35;56.10;101004.81;5092450;28;20087;-77
2022/08/25 01:12:15;;;;;;;20.00;8.18;;;;;;;19.33;56.05;101002.19;5092365;28;20090;-77
2022/08/25 01:14:45;;;;;;;21.38;8.30;;;;;;;19.39;56.11;101010.03;5074320;28;20503;-77
2022/08/25 01:17:13;;;;;;;15.43;8.30;;;;;;;19.40;56.04;101025.06;5092703;28;20052;-76
2022/08/25 01:19:41;;;;;;;23.77;8.40;;;;;;;19.37;56.00;101014.50;5095940;28;20059;-77
2022/08/25 01:22:10;;;;;;;20.00;8.77;;;;;;;19.34;56.12;101011.91;5096107;28;20052;-78
2022/08/25 01:24:52;;;;;;;16.75;8.23;;;;;;;19.33;56.18;101009.25;5096119;28;20060;-78
2022/08/25 01:27:19;;;;;;;19.27;8.20;;;;;;;19.30;56.20;101012.84;5095848;28;20063;-78
2022/08/25 01:29:48;;;;;;;25.40;9.20;;;;;;;19.22;56.25;101002.34;5095843;28;20059;-77
2022/08/25 01:32:15;;;;;;;20.00;8.85;;;;;;;19.18;56.54;100989.16;5095561;28;20058;-77
2022/08/25 01:34:44;;;;;;;23.88;9.02;;;;;;;19.25;56.35;101006.72;5095776;28;20489;-79
2022/08/25 01:37:14;;;;;;;17.70;9.27;;;;;;;19.18;56.31;100997.97;5095826;28;20047;-77
2022/08/25 01:39:42;;;;;;;17.92;8.52;;;;;;;19.12;56.57;100994.53;5095726;28;20143;-77
2022/08/25 01:42:17;;;;;;;16.20;8.15;;;;;;;19.20;56.40;101008.56;5095589;28;20048;-78
2022/08/25 01:44:46;;;;;;;23.35;8.95;;;;;;;19.16;56.59;101002.41;5095711;28;20056;-78
2022/08/25 01:47:14;;;;;;;18.75;8.98;;;;;;;19.19;56.63;101015.63;5095507;28;20105;-78
2022/08/25 01:49:42;;;;;;;19.00;8.88;;;;;;;19.13;56.44;100991.03;5095456;28;20062;-77
2022/08/25 01:52:22;;;;;;;17.30;8.80;;;;;;;18.96;56.53;100978.88;5095332;28;20082;-78
2022/08/25 01:54:49;;;;;;;18.00;8.35;;;;;;;19.11;56.81;101012.22;5077443;28;20101;-77
2022/08/25 01:57:16;;;;;;;21.58;8.65;;;;;;;19.08;56.76;101009.63;5095153;28;20056;-78
2022/08/25 01:59:44;;;;;;;19.85;8.57;;;;;;;19.07;56.80;101001.69;5095400;28;20056;-79
2022/08/25 02:02:11;;;;;;;21.30;8.68;;;;;;;19.11;56.90;101019.28;5095110;28;20067;-77
2022/08/25 02:04:38;;;;;;;21.23;9.18;;;;;;;19.10;56.97;101012.22;5076886;28;20048;-78
2022/08/25 02:07:10;;;;;;;18.13;8.52;;;;;;;19.06;57.12;101011.41;5077997;28;20071;-77
2022/08/25 02:09:38;;;;;;;17.38;8.63;;;;;;;18.99;57.16;101013.28;5094875;28;20056;-77
2022/08/25 02:12:08;;;;;;;16.08;7.97;;;;;;;19.02;57.31;101010.56;5098413;28;20052;-77
2022/08/25 02:14:55;;;;;;;19.98;8.48;;;;;;;18.98;57.39;101016.78;5085804;28;20079;-77
2022/08/25 02:17:22;;;;;;;19.27;9.15;;;;;;;18.93;57.75;100996.56;5098968;28;20056;-77
2022/08/25 02:19:49;;;;;;;16.98;9.10;;;;;;;18.98;57.61;101008.00;5096934;28;20052;-77
2022/08/25 02:22:17;;;;;;;15.82;8.43;;;;;;;18.93;57.50;100999.22;5095908;28;20078;-78
2022/08/25 02:24:44;;;;;;;21.73;9.07;;;;;;;19.01;57.42;101016.78;5096671;28;20066;-76
2022/08/25 02:27:11;;;;;;;20.73;8.65;;;;;;;19.00;57.13;101007.06;5098066;28;20079;-76
2022/08/25 02:29:38;;;;;;;20.38;8.82;;;;;;;19.02;57.07;101015.00;5103734;28;20068;-76
2022/08/25 02:32:06;;;;;;;19.90;8.75;;;;;;;19.05;57.21;101020.25;5098002;28;20413;-78
2022/08/25 02:34:41;;;;;;;17.33;8.52;;;;;;;18.92;57.15;100985.09;5094898;28;20066;-78
2022/08/25 02:37:08;;;;;;;21.92;9.13;;;;;;;19.12;56.68;101015.72;5094620;28;20427;-77
2022/08/25 02:39:35;;;;;;;23.05;8.95;;;;;;;19.19;56.87;101012.13;5094603;28;20052;-79
2022/08/25 02:42:02;;;;;;;17.63;8.50;;;;;;;19.27;56.72;101009.34;5076660;28;20055;-78
2022/08/25 02:44:30;;;;;;;20.52;8.55;;;;;;;19.31;56.39;101014.56;5095001;28;20102;-77
2022/08/25 02:46:57;;;;;;;22.45;9.20;;;;;;;19.26;56.64;100987.28;5094535;28;20055;-78
2022/08/25 02:49:24;;;;;;;16.38;8.57;;;;;;;19.42;56.59;101012.66;5094268;28;20093;-77
2022/08/25 02:51:52;;;;;;;19.08;9.15;;;;;;;19.33;56.50;100981.00;5076218;28;20542;-78
2022/08/25 02:54:19;;;;;;;16.38;8.35;;;;;;;19.60;56.33;101005.34;5094218;28;20500;-78
2022/08/25 02:56:47;;;;;;;21.55;9.55;;;;;;;19.70;56.20;101014.03;5094532;28;20094;-77
2022/08/25 02:59:16;;;;;;;24.83;9.50;;;;;;;19.77;55.71;101011.28;5094202;28;20055;-78
2022/08/25 03:01:44;;;;;;;19.65;8.75;;;;;;;19.82;55.58;101011.19;5093907;28;20060;-77
2022/08/25 03:04:11;;;;;;;22.40;9.07;;;;;;;19.95;54.96;101014.50;5093818;28;20071;-77
2022/08/25 03:06:38;;;;;;;20.02;8.73;;;;;;;20.05;54.69;101014.31;5094024;28;20048;-78
2022/08/25 03:09:06;;;;;;;22.90;8.82;;;;;;;20.16;54.25;101003.53;5094343;28;20051;-78
2022/08/25 03:11:33;;;;;;;18.27;8.73;;;;;;;20.25;53.87;100992.72;5093904;28;20051;-77
2022/08/25 03:14:00;;;;;;;23.85;9.27;;;;;;;20.42;53.50;101020.75;5093993;28;20059;-78
2022/08/25 03:16:27;;;;;;;23.95;9.48;;;;;;;20.40;53.44;100991.56;5094219;28;20135;-78
2022/08/25 03:18:55;;;;;;;21.10;9.30;;;;;;;20.66;52.75;101007.00;5075952;28;20056;-77
2022/08/25 03:21:23;;;;;;;27.92;8.93;;;;;;;20.81;52.56;101010.25;5093789;28;20058;-75
2022/08/25 03:23:50;;;;;;;26.73;8.65;;;;;;;20.85;52.16;100978.31;5093586;28;20443;-77
2022/08/25 03:29:06;;;;;;;15.40;8.55;;;;;;;21.13;51.28;100959.09;5093614;28;20083;-78
2022/08/25 03:31:33;;;;;;;;;;;;;;;22.24;50.22;100999.84;5093931;28;20059;-76
2022/08/25 03:34:00;;;;;;;22.63;9.50;;;;;;;24.60;44.11;100985.28;5093643;28;19928;-77
2022/08/25 03:36:28;;;;;;;20.00;8.55;;;;;;;26.20;40.06;100989.59;5093672;28;20056;-76
2022/08/25 03:38:55;;;;;;;25.92;9.35;;;;;;;27.16;38.22;100980.75;5093431;28;20109;-77
2022/08/25 03:41:29;;;;;;;22.05;9.10;;;;;;;27.54;37.14;100986.09;5093633;28;20113;-77
2022/08/25 03:43:56;;;;;;;27.65;9.27;;;;;;;26.89;38.38;100969.53;5093470;28;20579;-79
2022/08/25 03:46:26;;;;;;;19.60;9.07;;;;;;;26.12;40.15;100991.72;5093418;28;20048;-78
2022/08/25 03:48:54;;;;;;;22.58;10.82;;;;;;;25.40;41.63;100984.00;5093658;28;20101;-79
2022/08/25 03:51:24;;;;;;;18.80;10.45;;;;;;;25.01;42.67;100982.81;5093370;28;20051;-77
2022/08/25 03:53:55;;;;;;;22.58;10.38;;;;;;;24.91;42.69;100974.31;5093598;28;20044;-75
2022/08/25 03:56:22;;;;;;;25.75;10.25;;;;;;;24.92;43.06;100985.88;5093226;28;20499;-77
2022/08/25 03:58:50;;;;;;;24.10;10.15;;;;;;;24.85;42.84;100958.50;5074935;28;20058;-78
2022/08/25 04:01:17;;;;;;;20.40;9.48;;;;;;;25.02;42.49;100971.22;5089163;28;20047;-77
2022/08/25 04:03:46;;;;;;;19.83;8.90;;;;;;;25.12;42.47;100964.59;5092796;28;20515;-77
2022/08/25 04:06:18;;;;;;;21.85;9.48;;;;;;;25.07;42.41;100976.38;5075276;28;20156;-76
2022/08/25 04:08:46;;;;;;;22.50;9.88;;;;;;;24.94;42.87;100968.84;5093084;28;20052;-78
2022/08/25 04:11:18;;;;;;;23.25;9.55;;;;;;;24.79;43.70;100945.38;5093259;28;20054;-79
2022/08/25 04:13:46;;;;;;;20.15;10.00;;;;;;;25.01;43.29;100971.28;5093184;28;20087;-77
2022/08/25 04:16:20;;;;;;;20.92;9.68;;;;;;;25.02;43.10;100973.91;5093783;28;20066;-77
2022/08/25 04:18:48;;;;;;;24.70;10.18;;;;;;;25.03;43.03;100942.69;5093500;28;20055;-78
2022/08/25 04:21:19;;;;;;;24.63;10.23;;;;;;;25.01;42.81;100932.03;5094525;28;20084;-78
2022/08/25 04:23:47;;;;;;;26.02;10.30;;;;;;;25.32;42.79;100963.81;5093715;28;20048;-78
2022/08/25 04:26:18;;;;;;;22.15;10.60;;;;;;;25.32;42.46;100962.94;5074498;28;20056;-77
2022/08/25 04:32:51;;;;;;;18.02;10.35;;;;;;;25.38;42.28;100951.97;5093892;28;20051;-78
2022/08/25 04:35:18;;;;;;;33.50;12.02;;;;;;;25.35;41.82;100917.34;5093365;28;20071;-77
2022/08/25 04:37:47;;;;;;;23.83;14.20;;;;;;;25.50;41.71;100964.00;5093306;28;20063;-78
2022/08/25 04:40:14;;;;;;;29.25;13.05;;;;;;;25.47;42.23;100956.97;5097764;28;20052;-78
2022/08/25 04:42:43;;;;;;;25.02;11.23;;;;;;;25.52;41.92;100922.88;5099859;28;20477;-76
2022/08/25 04:45:13;;;;;;;27.45;11.60;;;;;;;25.91;41.37;100964.06;5097129;28;20052;-77
2022/08/25 04:47:40;;;;;;;28.77;10.90;;;;;;;26.06;41.26;100958.06;5095680;28;20139;-79
2022/08/25 04:50:07;;;;;;;30.17;11.68;;;;;;;26.25;40.73;100962.59;5094407;28;20044;-78
2022/08/25 04:52:36;;;;;;;29.80;11.68;;;;;;;26.23;41.03;100951.94;5094300;28;20466;-78
2022/08/25 04:55:03;;;;;;;22.70;11.27;;;;;;;26.31;40.76;100957.84;5096550;28;20522;-78
2022/08/25 04:57:30;;;;;;;19.95;11.02;;;;;;;26.43;40.48;100958.22;5061347;28;20054;-79
2022/08/25 04:59:57;;;;;;;28.58;11.95;;;;;;;26.47;40.05;100962.50;5096719;28;20050;-78
2022/08/25 05:02:24;;;;;;;26.90;12.95;;;;;;;26.47;40.48;100949.09;5096558;28;20058;-76
2022/08/25 05:04:54;;;;;;;29.45;12.27;;;;;;;26.66;40.02;100943.81;5095879;28;20070;-77
2022/08/25 05:07:21;;;;;;;24.63;11.63;;;;;;;26.73;40.26;100947.94;5096032;28;20060;-78
2022/08/25 05:09:48;;;;;;;27.25;11.48;;;;;;;26.87;40.09;100947.28;5077685;28;20054;-77
2022/08/25 05:12:15;;;;;;;29.60;14.82;;;;;;;26.98;39.69;100949.47;5095986;28;20508;-76
2022/08/25 05:14:42;;;;;;;27.00;12.18;;;;;;;27.06;39.89;100944.59;5095723;28;20499;-78
2022/08/25 05:17:09;;;;;;;23.30;12.38;;;;;;;27.22;39.27;100950.13;5095999;28;20051;-76
2022/08/25 05:19:36;;;;;;;24.73;12.20;;;;;;;27.23;39.22;100944.66;5095608;28;20048;-77
2022/08/25 05:22:03;;;;;;;23.77;11.55;;;;;;;27.31;38.83;100941.63;5095770;28;20572;-76
2022/08/25 05:24:31;;;;;;;25.48;11.93;;;;;;;27.23;39.18;100914.28;5095231;28;20404;-78
2022/08/25 05:26:58;;;;;;;22.15;12.80;;;;;;;27.45;38.37;100933.75;5095662;28;20055;-76
2022/08/25 05:29:25;;;;;;;23.27;12.73;;;;;;;27.29;37.73;100900.59;5095590;28;20495;-77
2022/08/25 05:31:53;;;;;;;23.55;11.23;;;;;;;27.56;37.51;100934.06;5095194;28;20117;-78
2022/08/25 05:34:20;;;;;;;22.42;11.73;;;;;;;27.41;37.55;100889.25;5095741;28;20571;-78
2022/08/25 05:36:48;;;;;;;17.15;10.25;;;;;;;27.89;36.91;100937.81;5095820;28;20052;-78
2022/08/25 05:39:15;;;;;;;18.38;10.30;;;;;;;28.01;37.11;100941.66;5094093;28;20426;-79
2022/08/25 05:41:43;;;;;;;21.45;9.95;;;;;;;28.06;36.29;100942.31;5077366;28;20423;-78
2022/08/25 05:44:11;;;;;;;20.33;10.45;;;;;;;28.08;36.44;100940.41;5095793;28;20052;-78
2022/08/25 05:46:38;;;;;;;21.67;9.88;;;;;;;28.14;36.16;100940.97;5095507;28;20056;-80
2022/08/25 05:49:05;;;;;;;26.92;10.48;;;;;;;28.21;35.73;100936.13;5095544;28;20499;-81
2022/08/25 05:51:32;;;;;;;21.02;9.90;;;;;;;28.28;35.50;100936.66;5095294;28;20052;-81
2022/08/25 05:54:00;;;;;;;19.98;9.50;;;;;;;28.37;35.26;100937.06;5095816;28;20062;-80
2022/08/25 05:56:26;;;;;;;23.40;9.40;;;;;;;28.42;34.96;100926.06;5095490;28;20504;-80
2022/08/25 05:58:53;;;;;;;24.83;9.38;;;;;;;28.37;34.42;100906.59;5077136;28;20507;-80
2022/08/25 06:04:14;;;;;;;21.00;9.00;;;;;;;28.53;34.50;100920.13;5094529;28;20075;-81
2022/08/25 06:06:42;;;;;;;;;;;;;;;28.35;35.30;100922.84;5095618;28;20063;-78
2022/08/25 06:09:09;;;;;;;22.15;9.40;;;;;;;28.39;34.77;100905.59;5077146;28;20310;-78
2022/08/25 06:11:39;;;;;;;17.15;8.77;;;;;;;28.41;34.29;100927.00;5094260;28;20056;-78
2022/08/25 06:14:08;;;;;;;21.50;8.73;;;;;;;28.28;34.13;100899.91;5094994;28;20087;-79
2022/08/25 06:16:35;;;;;;;19.90;8.80;;;;;;;28.45;34.02;100933.06;5095044;28;20429;-79
2022/08/25 06:19:02;;;;;;;19.65;9.38;;;;;;;28.52;34.39;100923.75;5094933;28;20059;-79
2022/08/25 06:21:29;;;;;;;22.23;9.48;;;;;;;28.42;33.95;100891.13;5095277;28;20048;-79
2022/08/25 06:23:56;;;;;;;22.27;9.27;;;;;;;28.61;34.05;100925.06;5095054;28;20051;-78
2022/08/25 06:26:23;;;;;;;16.25;9.40;;;;;;;28.69;33.78;100915.63;5094603;28;20107;-80
2022/08/25 06:28:51;;;;;;;20.67;8.77;;;;;;;28.82;33.24;100925.69;5094569;28;20063;-76
2022/08/25 06:31:21;;;;;;;23.30;8.55;;;;;;;28.96;33.35;100923.09;5094772;28;20052;-76
2022/08/25 06:33:48;;;;;;;19.23;8.95;;;;;;;29.10;32.98;100927.72;5094420;28;20058;-78
2022/08/25 06:36:19;;;;;;;21.98;8.45;;;;;;;29.22;32.78;100923.47;5094858;28;20044;-76
2022/08/25 06:38:46;;;;;;;20.05;9.05;;;;;;;29.31;32.32;100928.31;5094729;28;20087;-79
2022/08/25 06:41:15;;;;;;;18.95;8.23;;;;;;;29.40;32.62;100939.41;5094250;28;20419;-79
2022/08/25 06:43:43;;;;;;;30.73;9.20;;;;;;;29.48;32.78;100930.88;5093256;28;20060;-77
2022/08/25 06:46:26;;;;;;;19.98;8.73;;;;;;;29.54;32.07;100926.97;5095287;28;20048;-79
2022/08/25 06:49:05;;;;;;;21.23;8.02;;;;;;;29.66;31.40;100915.44;5095054;28;20052;-76
2022/08/25 06:51:34;;;;;;;19.70;7.97;;;;;;;29.66;30.70;100906.50;5094107;28;20044;-77
2022/08/25 06:54:03;;;;;;;23.02;8.60;;;;;;;29.74;30.73;100912.34;5094103;28;20590;-78
2022/08/25 06:56:31;;;;;;;32.43;8.43;;;;;;;29.78;30.39;100911.19;5093994;28;20143;-78
2022/08/25 06:59:03;;;;;;;21.67;8.30;;;;;;;29.87;30.32;100925.91;5093994;28;20377;-77
2022/08/25 07:01:31;;;;;;;14.85;8.07;;;;;;;29.94;30.10;100912.00;5094025;28;20134;-76
2022/08/25 07:04:00;;;;;;;27.08;8.23;;;;;;;29.98;29.74;100915.34;5093730;28;20097;-77
2022/08/25 07:06:31;;;;;;;18.73;6.95;;;;;;;29.99;29.13;100904.50;5094191;28;20507;-78
2022/08/25 07:08:58;;;;;;;16.30;6.80;;;;;;;29.98;29.20;100913.50;5094124;28;20410;-77
2022/08/25 07:11:26;;;;;;;17.63;6.70;;;;;;;29.97;28.86;100908.25;5093978;28;20055;-79
2022/08/25 07:13:56;;;;;;;14.57;6.80;;;;;;;30.02;28.91;100906.97;5093448;28;20055;-77
2022/08/25 07:16:23;;;;;;;16.83;8.13;;;;;;;30.24;28.72;100908.34;5092828;28;20052;-77
2022/08/25 07:18:57;;;;;;;13.13;7.00;;;;;;;30.34;27.89;100903.28;5093427;28;20060;-79
2022/08/25 07:21:28;;;;;;;14.20;6.32;;;;;;;30.49;27.67;100907.69;5093477;28;20134;-77
2022/08/25 07:24:02;;;;;;;14.10;6.53;;;;;;;30.56;27.39;100900.09;5093545;28;20056;-77
2022/08/25 07:26:33;;;;;;;12.43;6.22;;;;;;;30.55;26.94;100898.38;5093499;28;20097;-77
2022/08/25 07:29:10;;;;;;;12.27;6.88;;;;;;;30.56;26.96;100900.09;5093717;28;20044;-76
2022/08/25 07:31:38;;;;;;;11.57;6.53;;;;;;;30.67;27.04;100899.41;5093308;28;20512;-78
2022/08/25 07:36:53;;;;;;;7.22;6.55;;;;;;;30.75;26.39;100902.47;5093132;28;20496;-82
2022/08/25 07:39:21;;;;;;;8.18;7.28;;;;;;;30.68;27.00;100901.16;5093392;28;20498;-80
2022/08/25 07:41:49;;;;;;;10.93;6.97;;;;;;;30.76;27.06;100907.78;5092987;28;20518;-79
2022/08/25 07:44:21;;;;;;;9.75;6.75;;;;;;;30.75;26.81;100870.13;5093067;28;20561;-79
2022/08/25 07:46:50;;;;;;;13.23;7.13;;;;;;;31.00;26.92;100897.25;5093140;28;20064;-79
2022/08/25 07:49:20;;;;;;;11.43;7.28;;;;;;;31.09;27.01;100897.59;5093293;28;20062;-79
2022/08/25 07:51:51;;;;;;;11.63;7.80;;;;;;;31.09;26.94;100893.06;5093107;28;20047;-79
2022/08/25 07:54:33;;;;;;;13.50;8.10;;;;;;;31.02;27.42;100892.59;5093195;28;20139;-79
2022/08/25 07:57:07;;;;;;;13.55;7.72;;;;;;;30.90;27.44;100871.84;5092783;28;20047;-78
2022/08/25 07:59:42;;;;;;;16.85;7.72;;;;;;;31.00;27.66;100882.88;5093067;28;20063;-77
2022/08/25 08:02:11;;;;;;;9.20;8.00;;;;;;;31.02;27.30;100881.81;5092996;28;20062;-81
2022/08/25 08:04:50;;;;;;;11.77;7.35;;;;;;;31.05;27.36;100874.50;5093004;28;20052;-81
2022/08/25 08:07:23;;;;;;;11.85;7.93;;;;;;;31.01;27.44;100857.63;5093307;28;20451;-81
2022/08/25 08:10:11;;;;;;;13.43;8.00;;;;;;;31.04;27.68;100879.03;5093030;28;20074;-80
2022/08/25 08:12:58;;;;;;;12.38;7.88;;;;;;;31.03;28.01;100858.41;5074590;28;20052;-81
2022/08/25 08:15:25;;;;;;;13.07;7.90;;;;;;;30.94;27.67;100838.28;5092870;28;20086;-79
2022/08/25 08:17:58;;;;;;;15.45;8.50;;;;;;;30.93;28.56;100866.25;5092826;28;20056;-84
2022/08/25 08:20:27;;;;;;;13.80;8.35;;;;;;;30.96;28.44;100859.78;5074490;28;20427;-78
2022/08/25 08:22:54;;;;;;;;;;;;;;;30.78;28.80;100849.22;5092840;28;20060;-79
2022/08/25 08:25:21;;;;;;;13.20;8.00;;;;;;;30.93;28.01;100841.09;5091181;28;19930;-79
2022/08/25 08:27:55;;;;;;;11.52;7.50;;;;;;;31.09;26.84;100852.59;5087950;28;20454;-79
2022/08/25 08:30:23;;;;;;;12.73;7.53;;;;;;;31.11;27.33;100847.97;5084067;28;20526;-80
2022/08/25 08:32:55;;;;;;;12.20;7.60;;;;;;;31.18;27.37;100861.91;5094933;28;20492;-79
2022/08/25 08:35:40;;;;;;;16.13;7.38;;;;;;;31.17;26.77;100843.97;5079504;28;20515;-79
2022/08/25 08:38:07;;;;;;;9.57;6.97;;;;;;;31.15;26.75;100837.84;5096761;28;20052;-77
2022/08/25 08:42:15;;;;;;;33.10;12.60;;;;;;;31.17;27.26;100839.47;5096982;28;20084;-80
2022/08/25 08:43:58;;;;;;;27.63;10.57;;;;;;;31.25;27.07;100838.91;5096510;28;20093;-78
2022/08/25 08:46:35;;;;;;;13.52;8.18;;;;;;;31.26;26.75;100837.09;5096664;28;20146;-77
2022/08/25 08:49:21;;;;;;;15.13;8.75;;;;;;;31.33;26.77;100838.41;5096615;28;20052;-77
2022/08/25 08:51:59;;;;;;;13.10;8.52;;;;;;;31.43;26.65;100834.16;5096560;28;20530;-80
2022/08/25 08:54:34;;;;;;;13.52;7.95;;;;;;;31.50;26.18;100832.75;5096271;28;20423;-78
2022/08/25 08:57:24;;;;;;;10.90;7.90;;;;;;;31.70;25.90;100822.38;5096446;28;20557;-82
2022/08/25 09:00:00;;;;;;;11.38;7.28;;;;;;;31.75;25.88;100817.50;5096185;28;20350;-82
2022/08/25 09:02:33;;;;;;;12.90;7.22;;;;;;;31.92;26.09;100822.63;5096144;28;20419;-80
2022/08/25 09:05:18;;;;;;;15.33;7.97;;;;;;;31.87;25.97;100822.06;5096728;28;20078;-79
2022/08/25 09:07:52;;;;;;;44.55;11.13;;;;;;;32.02;26.02;100820.13;5096624;28;20282;-80
2022/08/25 09:10:23;;;;;;;43.97;10.63;;;;;;;32.23;25.62;100813.19;5096593;28;20531;-80
2022/08/25 09:12:59;;;;;;;22.02;8.57;;;;;;;32.48;25.50;100808.66;5095978;28;20519;-81
2022/08/25 09:19:39;;;;;;;12.85;8.35;;;;;;;32.76;24.56;100804.84;5010662;28;20151;-77
2022/08/25 09:22:08;;;;;;;15.02;9.55;;;;;;;32.81;24.19;100810.75;5095771;28;20070;-79
2022/08/25 09:25:10;;;;;;;10.57;7.35;;;;;;;32.86;24.31;100807.69;5095855;28;20048;-78
2022/08/25 09:27:54;;;;;;;9.82;7.47;;;;;;;32.96;23.92;100800.63;5096255;28;20052;-80
2022/08/25 09:30:32;;;;;;;10.85;7.93;;;;;;;32.83;24.16;100795.28;5096037;28;20097;-78
2022/08/25 09:33:03;;;;;;;8.30;7.25;;;;;;;32.70;23.49;100802.59;5096243;28;20044;-78
2022/08/25 09:35:35;;;;;;;7.35;6.60;;;;;;;32.71;23.28;100801.59;5099226;28;20082;-79
2022/08/25 09:38:08;;;;;;;8.70;7.03;;;;;;;32.61;23.38;100792.44;5084773;28;20058;-76
2022/08/25 09:40:40;;;;;;;10.02;7.57;;;;;;;32.60;23.90;100794.28;5084124;28;20450;-80
2022/08/25 09:43:20;;;;;;;9.40;7.95;;;;;;;32.54;23.97;100796.59;5095325;28;20423;-81
2022/08/25 09:45:56;;;;;;;11.05;7.35;;;;;;;32.50;24.00;100797.75;5092428;28;20428;-77
2022/08/25 09:48:37;;;;;;;13.32;8.70;;;;;;;32.64;24.33;100792.22;5094514;28;20056;-77
2022/08/25 09:51:16;;;;;;;10.63;8.00;;;;;;;32.81;24.25;100790.97;5095335;28;20079;-77
2022/08/25 09:54:04;;;;;;;10.90;7.85;;;;;;;32.80;24.01;100790.09;5095550;28;20529;-80
2022/08/25 09:56:51;;;;;;;11.23;8.10;;;;;;;32.67;24.25;100783.00;5095315;28;20051;-78
2022/08/25 09:59:22;;;;;;;10.48;7.75;;;;;;;32.71;24.13;100781.81;5094889;28;20113;-77
2022/08/25 10:02:26;;;;;;;13.98;8.20;;;;;;;32.62;24.27;100786.06;5094987;28;20142;-79
2022/08/25 10:04:54;;;;;;;13.75;8.43;;;;;;;32.56;24.45;100779.25;5088516;28;20121;-79
2022/08/25 10:07:37;;;;;;;13.63;8.33;;;;;;;32.69;24.13;100760.28;5084081;28;20051;-80
2022/08/25 10:10:17;;;;;;;13.35;8.02;;;;;;;32.90;23.94;100773.16;5090182;28;20849;-76
2022/08/25 10:12:48;;;;;;;19.48;8.65;;;;;;;32.82;23.91;100761.06;5095184;28;20078;-79
2022/08/25 10:15:35;;;;;;;16.33;8.68;;;;;;;32.51;24.13;100767.91;5094763;28;20052;-76
2022/08/25 10:18:24;;;;;;;16.67;7.93;;;;;;;32.32;24.34;100773.81;5094722;28;20075;-80
2022/08/25 10:21:18;;;;;;;12.45;8.30;;;;;;;32.49;24.13;100771.69;5094257;28;20048;-77
2022/08/25 10:23:54;;;;;;;12.85;8.15;;;;;;;32.64;23.59;100757.91;5085408;28;20500;-78
2022/08/25 10:26:51;;;;;;;13.23;8.00;;;;;;;32.92;23.07;100768.50;5068290;28;20109;-78
2022/08/25 10:30:01;;;;;;;11.90;8.40;;;;;;;32.90;23.33;100762.34;5095088;28;20504;-78
2022/08/25 10:33:00;;;;;;;13.93;7.90;;;;;;;32.99;23.13;100754.38;5094946;28;20155;-79
2022/08/25 10:35:38;;;;;;;13.30;7.78;;;;;;;33.00;22.91;100760.66;5094653;28;20068;-78
2022/08/25 10:38:30;;;;;;;11.52;8.07;;;;;;;32.80;22.93;100762.16;5094552;28;20056;-78
2022/08/25 10:41:28;;;;;;;10.52;7.63;;;;;;;32.64;23.21;100747.09;5094434;28;20143;-77
2022/08/25 10:47:26;;;;;;;14.93;8.82;;;;;;;32.96;22.49;100743.78;5094093;28;20095;-79
2022/08/25 10:50:02;;;;;;;16.45;9.15;;;;;;;32.85;22.61;100750.03;5094000;28;20566;-79
2022/08/25 10:52:59;;;;;;;16.13;9.10;;;;;;;32.60;22.98;100745.59;5093994;28;20082;-78
2022/08/25 10:56:06;;;;;;;18.05;9.55;;;;;;;32.50;23.00;100733.72;5094301;28;20048;-79
2022/08/25 10:59:11;;;;;;;15.57;9.40;;;;;;;32.53;22.89;100709.19;5094094;28;20397;-76
2022/08/25 11:01:53;;;;;;;16.30;10.00;;;;;;;32.61;23.15;100725.72;5094317;28;20531;-76
2022/08/25 11:04:37;;;;;;;16.25;10.02;;;;;;;32.72;23.04;100730.31;5075626;28;20055;-78
2022/08/25 11:07:19;;;;;;;17.90;9.90;;;;;;;32.97;22.66;100729.28;5093411;28;20101;-77
2022/08/25 11:09:49;;;;;;;10.60;8.32;;;;;;;33.21;21.98;100736.50;5092999;28;20139;-78
2022/08/25 11:12:25;;;;;;;13.95;7.63;;;;;;;33.38;21.71;100725.19;5093776;28;20146;-76
2022/08/25 11:15:02;;;;;;;11.27;8.02;;;;;;;33.50;21.81;100712.56;5093646;28;20044;-76
2022/08/25 11:17:47;;;;;;;11.88;7.32;;;;;;;33.34;21.31;100690.38;5093298;28;20431;-79
2022/08/25 11:20:22;;;;;;;10.27;7.15;;;;;;;33.22;21.39;100711.16;5093807;28;20118;-77
2022/08/25 11:23:25;;;;;;;10.70;7.38;;;;;;;33.20;21.70;100705.00;5093725;28;20048;-77
2022/08/25 11:26:00;;;;;;;10.82;7.45;;;;;;;33.29;21.56;100706.13;5055683;28;20659;-77
2022/08/25 11:28:49;;;;;;;12.50;7.43;;;;;;;33.17;21.41;100706.13;5093530;28;20113;-76
2022/08/25 11:31:18;;;;;;;14.05;7.13;;;;;;;32.98;21.81;100705.81;5093244;28;20473;-78
2022/08/25 11:33:47;;;;;;;;;;;;;;;32.64;22.38;100687.59;5093610;28;20083;-78
2022/08/25 11:36:23;;;;;;;12.80;7.45;;;;;;;32.74;22.22;100695.00;5093179;28;19931;-77
2022/08/25 11:39:35;;;;;;;12.18;7.63;;;;;;;32.68;22.29;100688.25;5092393;28;20071;-77
2022/08/25 11:42:20;;;;;;;13.95;7.72;;;;;;;32.62;22.40;100684.16;5030615;28;20083;-78
2022/08/25 11:45:36;;;;;;;11.68;7.25;;;;;;;32.72;22.47;100683.44;5072523;28;20060;-77
2022/08/25 11:48:26;;;;;;;14.20;7.70;;;;;;;32.84;22.38;100686.06;5067407;28;20060;-80
2022/08/25 11:51:06;;;;;;;11.10;7.80;;;;;;;32.94;22.44;100686.22;5072737;28;20056;-77
2022/08/25 11:53:40;;;;;;;15.00;8.60;;;;;;;32.95;22.17;100677.13;5073042;28;20102;-77
2022/08/25 11:56:30;;;;;;;14.38;8.48;;;;;;;32.68;22.30;100674.72;5072739;28;20060;-79
2022/08/25 11:58:58;;;;;;;12.10;8.32;;;;;;;32.60;22.82;100679.84;5072480;28;20056;-79
2022/08/25 12:01:38;;;;;;;12.88;8.70;;;;;;;32.59;22.58;100665.47;5072057;28;20060;-79
2022/08/25 12:04:14;;;;;;;12.75;8.30;;;;;;;32.61;22.70;100670.75;5072642;28;20462;-79